sensor_id;sensor_type;location;lat;lon;timestamp;pressure;altitude;pressure_sealevel;temperature;humidity
2685;BME280;1352;48.446;9.156;2022-10-31T00:00:43;95778.81;;;16.35;78.16
2685;BME280;1352;48.446;9.156;2022-10-31T00:03:12;95772.41;;;16.46;77.77
2685;BME280;1352;48.446;9.156;2022-10-31T00:05:40;95768.66;;;16.48;77.54
2685;BME280;1352;48.446;9.156;2022-10-31T00:08:08;95775.56;;;16.41;78.35
2685;BME280;1352;48.446;9.156;2022-10-31T00:10:37;95774.53;;;16.42;77.92
2685;BME280;1352;48.446;9.156;2022-10-31T00:13:04;95770.63;;;16.46;77.76
2685;BME280;1352;48.446;9.156;2022-10-31T00:15:32;95775.88;;;16.46;77.66
2685;BME280;1352;48.446;9.156;2022-10-31T00:17:59;95766.69;;;16.50;77.76
2685;BME280;1352;48.446;9.156;2022-10-31T00:20:28;95773.09;;;16.56;77.73
2685;BME280;1352;48.446;9.156;2022-10-31T00:22:57;95769.66;;;16.55;77.52
2685;BME280;1352;48.446;9.156;2022-10-31T00:25:25;95772.94;;;16.57;76.84
2685;BME280;1352;48.446;9.156;2022-10-31T00:27:52;95768.56;;;16.66;77.33
2685;BME280;1352;48.446;9.156;2022-10-31T00:30:19;95763.78;;;16.69;77.05
2685;BME280;1352;48.446;9.156;2022-10-31T00:32:46;95766.25;;;16.71;77.25
2685;BME280;1352;48.446;9.156;2022-10-31T00:35:13;95768.72;;;16.72;76.83
2685;BME280;1352;48.446;9.156;2022-10-31T00:37:42;95775.78;;;16.72;76.94
2685;BME280;1352;48.446;9.156;2022-10-31T00:40:10;95774.66;;;16.66;77.12
2685;BME280;1352;48.446;9.156;2022-10-31T00:42:39;95772.09;;;16.49;78.86
2685;BME280;1352;48.446;9.156;2022-10-31T00:45:07;95772.94;;;16.49;77.55
2685;BME280;1352;48.446;9.156;2022-10-31T00:47:35;95770.31;;;16.49;77.91
2685;BME280;1352;48.446;9.156;2022-10-31T00:50:02;95766.16;;;16.47;77.78
2685;BME280;1352;48.446;9.156;2022-10-31T00:52:29;95766.16;;;16.47;77.86
2685;BME280;1352;48.446;9.156;2022-10-31T00:54:58;95763.38;;;16.48;77.92
2685;BME280;1352;48.446;9.156;2022-10-31T00:57:25;95758.78;;;16.50;78.17
2685;BME280;1352;48.446;9.156;2022-10-31T00:59:52;95764.22;;;16.57;77.83
2685;BME280;1352;48.446;9.156;2022-10-31T01:02:19;95766.84;;;16.57;77.17
2685;BME280;1352;48.446;9.156;2022-10-31T01:04:46;95757.81;;;16.59;77.24
2685;BME280;1352;48.446;9.156;2022-10-31T01:07:13;95757.63;;;16.61;76.88
2685;BME280;1352;48.446;9.156;2022-10-31T01:09:39;95751.56;;;16.60;77.02
2685;BME280;1352;48.446;9.156;2022-10-31T01:12:08;95755.00;;;16.61;76.86
2685;BME280;1352;48.446;9.156;2022-10-31T01:14:35;95756.00;;;16.60;76.82
2685;BME280;1352;48.446;9.156;2022-10-31T01:17:02;95749.59;;;16.62;76.78
2685;BME280;1352;48.446;9.156;2022-10-31T01:19:29;95754.88;;;16.62;76.56
2685;BME280;1352;48.446;9.156;2022-10-31T01:21:56;95755.69;;;16.63;76.93
2685;BME280;1352;48.446;9.156;2022-10-31T01:24:23;95754.03;;;16.62;77.10
2685;BME280;1352;48.446;9.156;2022-10-31T01:26:50;95751.91;;;16.65;77.06
2685;BME280;1352;48.446;9.156;2022-10-31T01:29:19;95750.94;;;16.66;77.34
2685;BME280;1352;48.446;9.156;2022-10-31T01:31:46;95752.19;;;16.54;78.26
2685;BME280;1352;48.446;9.156;2022-10-31T01:34:14;95747.41;;;16.50;78.53
2685;BME280;1352;48.446;9.156;2022-10-31T01:36:43;95750.84;;;16.42;79.76
2685;BME280;1352;48.446;9.156;2022-10-31T01:39:14;95748.16;;;16.26;80.43
2685;BME280;1352;48.446;9.156;2022-10-31T01:41:43;95752.44;;;16.27;80.02
2685;BME280;1352;48.446;9.156;2022-10-31T01:44:48;95747.31;;;16.17;79.29
2685;BME280;1352;48.446;9.156;2022-10-31T01:47:19;95748.63;;;16.13;79.72
2685;BME280;1352;48.446;9.156;2022-10-31T01:49:51;95745.44;;;16.02;81.37
2685;BME280;1352;48.446;9.156;2022-10-31T01:52:22;95746.06;;;15.95;81.88
2685;BME280;1352;48.446;9.156;2022-10-31T01:54:55;95744.84;;;15.74;83.16
2685;BME280;1352;48.446;9.156;2022-10-31T01:57:23;95738.38;;;15.68;84.06
2685;BME280;1352;48.446;9.156;2022-10-31T01:59:55;95743.97;;;15.65;84.46
2685;BME280;1352;48.446;9.156;2022-10-31T02:02:25;95741.63;;;15.62;84.96
2685;BME280;1352;48.446;9.156;2022-10-31T02:04:54;95733.75;;;15.62;84.17
2685;BME280;1352;48.446;9.156;2022-10-31T02:07:25;95736.41;;;15.44;85.58
2685;BME280;1352;48.446;9.156;2022-10-31T02:09:53;95739.59;;;15.30;84.69
2685;BME280;1352;48.446;9.156;2022-10-31T02:12:22;95735.25;;;15.21;85.36
2685;BME280;1352;48.446;9.156;2022-10-31T02:14:49;95735.78;;;15.24;85.50
2685;BME280;1352;48.446;9.156;2022-10-31T02:17:18;95735.25;;;15.21;85.11
2685;BME280;1352;48.446;9.156;2022-10-31T02:19:54;95733.34;;;15.05;85.78
2685;BME280;1352;48.446;9.156;2022-10-31T02:22:26;95739.00;;;14.93;86.52
2685;BME280;1352;48.446;9.156;2022-10-31T02:25:07;95734.88;;;14.90;86.18
2685;BME280;1352;48.446;9.156;2022-10-31T02:28:00;95731.88;;;14.85;85.87
2685;BME280;1352;48.446;9.156;2022-10-31T02:30:37;95733.00;;;14.82;85.80
2685;BME280;1352;48.446;9.156;2022-10-31T02:33:18;95735.25;;;14.77;85.55
2685;BME280;1352;48.446;9.156;2022-10-31T02:36:06;95736.44;;;14.65;85.87
2685;BME280;1352;48.446;9.156;2022-10-31T02:38:50;95730.38;;;14.65;86.50
2685;BME280;1352;48.446;9.156;2022-10-31T02:41:26;95737.13;;;14.67;86.88
2685;BME280;1352;48.446;9.156;2022-10-31T02:44:00;95730.44;;;14.73;85.81
2685;BME280;1352;48.446;9.156;2022-10-31T02:46:34;95735.53;;;14.74;86.33
2685;BME280;1352;48.446;9.156;2022-10-31T02:49:11;95723.38;;;14.73;85.97
2685;BME280;1352;48.446;9.156;2022-10-31T02:51:43;95734.44;;;14.77;86.73
2685;BME280;1352;48.446;9.156;2022-10-31T02:54:22;95722.75;;;14.71;86.73
2685;BME280;1352;48.446;9.156;2022-10-31T02:56:52;95730.16;;;14.76;87.27
2685;BME280;1352;48.446;9.156;2022-10-31T02:59:20;95729.19;;;14.77;87.94
2685;BME280;1352;48.446;9.156;2022-10-31T03:05:24;95721.38;;;14.67;88.78
2685;BME280;1352;48.446;9.156;2022-10-31T03:08:01;95723.72;;;14.70;89.42
2685;BME280;1352;48.446;9.156;2022-10-31T03:10:38;95724.69;;;14.51;90.55
2685;BME280;1352;48.446;9.156;2022-10-31T03:13:13;95723.78;;;14.43;90.90
2685;BME280;1352;48.446;9.156;2022-10-31T03:15:50;95725.63;;;14.33;92.58
2685;BME280;1352;48.446;9.156;2022-10-31T03:18:21;95726.78;;;14.48;90.22
2685;BME280;1352;48.446;9.156;2022-10-31T03:20:58;95728.34;;;14.41;89.85
2685;BME280;1352;48.446;9.156;2022-10-31T03:23:26;95725.03;;;14.39;90.36
2685;BME280;1352;48.446;9.156;2022-10-31T03:25:55;95725.63;;;14.33;90.28
2685;BME280;1352;48.446;9.156;2022-10-31T03:28:26;95726.88;;;14.29;90.61
2685;BME280;1352;48.446;9.156;2022-10-31T03:30:56;95730.31;;;14.29;90.33
2685;BME280;1352;48.446;9.156;2022-10-31T03:33:29;95734.06;;;14.27;90.73
2685;BME280;1352;48.446;9.156;2022-10-31T03:36:01;95724.84;;;14.23;90.70
2685;BME280;1352;48.446;9.156;2022-10-31T03:38:30;95722.38;;;14.21;90.31
2685;BME280;1352;48.446;9.156;2022-10-31T03:41:00;95717.28;;;14.20;91.71
2685;BME280;1352;48.446;9.156;2022-10-31T03:43:33;95716.28;;;14.21;91.89
2685;BME280;1352;48.446;9.156;2022-10-31T03:46:04;95717.81;;;14.23;92.15
2685;BME280;1352;48.446;9.156;2022-10-31T03:48:32;95716.28;;;14.21;93.50
2685;BME280;1352;48.446;9.156;2022-10-31T03:51:06;95709.94;;;14.23;92.58
2685;BME280;1352;48.446;9.156;2022-10-31T03:53:41;95723.19;;;14.22;90.97
2685;BME280;1352;48.446;9.156;2022-10-31T03:56:17;95718.38;;;14.17;90.89
2685;BME280;1352;48.446;9.156;2022-10-31T03:58:48;95716.44;;;14.19;90.65
2685;BME280;1352;48.446;9.156;2022-10-31T04:01:23;95718.53;;;14.15;91.37
2685;BME280;1352;48.446;9.156;2022-10-31T04:03:52;95713.28;;;14.15;90.55
2685;BME280;1352;48.446;9.156;2022-10-31T04:06:22;95718.84;;;14.12;90.50
2685;BME280;1352;48.446;9.156;2022-10-31T04:08:53;95709.75;;;14.07;90.78
2685;BME280;1352;48.446;9.156;2022-10-31T04:11:28;95711.84;;;14.03;90.99
2685;BME280;1352;48.446;9.156;2022-10-31T04:13:57;95707.28;;;14.05;91.04
2685;BME280;1352;48.446;9.156;2022-10-31T04:16:26;95712.81;;;14.02;90.19
2685;BME280;1352;48.446;9.156;2022-10-31T04:18:54;95711.16;;;14.01;90.66
2685;BME280;1352;48.446;9.156;2022-10-31T04:21:28;95713.16;;;13.90;92.18
2685;BME280;1352;48.446;9.156;2022-10-31T04:23:56;95715.63;;;13.91;93.46
2685;BME280;1352;48.446;9.156;2022-10-31T04:26:23;95715.34;;;13.94;93.12
2685;BME280;1352;48.446;9.156;2022-10-31T04:28:50;95712.03;;;13.92;92.23
2685;BME280;1352;48.446;9.156;2022-10-31T04:31:17;95706.66;;;13.94;91.85
2685;BME280;1352;48.446;9.156;2022-10-31T04:33:44;95705.75;;;13.85;92.78
2685;BME280;1352;48.446;9.156;2022-10-31T04:36:11;95703.31;;;13.74;93.67
2685;BME280;1352;48.446;9.156;2022-10-31T04:38:40;95707.19;;;13.70;93.84
2685;BME280;1352;48.446;9.156;2022-10-31T04:41:07;95702.72;;;13.80;92.39
2685;BME280;1352;48.446;9.156;2022-10-31T04:43:34;95702.84;;;13.78;91.90
2685;BME280;1352;48.446;9.156;2022-10-31T04:46:01;95698.88;;;13.74;91.44
2685;BME280;1352;48.446;9.156;2022-10-31T04:48:28;95706.06;;;13.72;91.46
2685;BME280;1352;48.446;9.156;2022-10-31T04:50:58;95701.38;;;13.76;90.48
2685;BME280;1352;48.446;9.156;2022-10-31T04:53:26;95699.56;;;13.76;90.45
2685;BME280;1352;48.446;9.156;2022-10-31T04:55:54;95693.50;;;13.76;90.56
2685;BME280;1352;48.446;9.156;2022-10-31T04:58:24;95695.59;;;13.72;90.76
2685;BME280;1352;48.446;9.156;2022-10-31T05:00:52;95684.03;;;13.65;91.91
2685;BME280;1352;48.446;9.156;2022-10-31T05:03:19;95691.34;;;13.62;92.07
2685;BME280;1352;48.446;9.156;2022-10-31T05:05:47;95679.34;;;13.59;92.83
2685;BME280;1352;48.446;9.156;2022-10-31T05:08:14;95689.03;;;13.59;92.67
2685;BME280;1352;48.446;9.156;2022-10-31T05:10:41;95683.78;;;13.59;93.54
2685;BME280;1352;48.446;9.156;2022-10-31T05:13:09;95686.25;;;13.60;93.02
2685;BME280;1352;48.446;9.156;2022-10-31T05:15:36;95682.97;;;13.58;93.01
2685;BME280;1352;48.446;9.156;2022-10-31T05:18:03;95678.69;;;13.57;93.26
2685;BME280;1352;48.446;9.156;2022-10-31T05:20:30;95673.44;;;13.57;93.35
2685;BME280;1352;48.446;9.156;2022-10-31T05:22:58;95669.31;;;13.55;93.05
2685;BME280;1352;48.446;9.156;2022-10-31T05:25:27;95671.94;;;13.55;93.68
2685;BME280;1352;48.446;9.156;2022-10-31T05:27:55;95662.69;;;13.51;94.09
2685;BME280;1352;48.446;9.156;2022-10-31T05:30:26;95660.06;;;13.51;95.25
2685;BME280;1352;48.446;9.156;2022-10-31T05:32:54;95669.31;;;13.55;96.32
2685;BME280;1352;48.446;9.156;2022-10-31T05:35:23;95665.50;;;13.49;97.05
2685;BME280;1352;48.446;9.156;2022-10-31T05:37:51;95662.34;;;13.36;97.11
2685;BME280;1352;48.446;9.156;2022-10-31T05:40:19;95663.38;;;13.53;94.46
2685;BME280;1352;48.446;9.156;2022-10-31T05:42:47;95665.19;;;13.52;93.76
2685;BME280;1352;48.446;9.156;2022-10-31T05:45:16;95655.13;;;13.48;93.81
2685;BME280;1352;48.446;9.156;2022-10-31T05:47:51;95654.63;;;13.34;93.85
2685;BME280;1352;48.446;9.156;2022-10-31T05:50:22;95649.25;;;13.36;93.83
2685;BME280;1352;48.446;9.156;2022-10-31T05:52:54;95650.34;;;13.33;94.41
2685;BME280;1352;48.446;9.156;2022-10-31T05:55:25;95652.00;;;13.34;95.72
2685;BME280;1352;48.446;9.156;2022-10-31T05:57:52;95659.28;;;13.40;95.79
2685;BME280;1352;48.446;9.156;2022-10-31T06:00:19;95662.06;;;13.39;96.40
2685;BME280;1352;48.446;9.156;2022-10-31T06:02:47;95660.94;;;13.41;95.58
2685;BME280;1352;48.446;9.156;2022-10-31T06:05:16;95666.59;;;13.47;94.56
2685;BME280;1352;48.446;9.156;2022-10-31T06:07:43;95664.25;;;13.44;94.25
2685;BME280;1352;48.446;9.156;2022-10-31T06:10:10;95662.06;;;13.39;94.36
2685;BME280;1352;48.446;9.156;2022-10-31T06:12:37;95661.63;;;13.44;94.02
2685;BME280;1352;48.446;9.156;2022-10-31T06:15:07;95664.97;;;13.36;94.85
2685;BME280;1352;48.446;9.156;2022-10-31T06:17:34;95672.34;;;13.03;95.65
2685;BME280;1352;48.446;9.156;2022-10-31T06:20:04;95673.94;;;12.67;95.06
2685;BME280;1352;48.446;9.156;2022-10-31T06:22:32;95665.53;;;12.83;94.26
2685;BME280;1352;48.446;9.156;2022-10-31T06:24:59;95671.47;;;12.56;98.39
2685;BME280;1352;48.446;9.156;2022-10-31T06:27:27;95665.69;;;12.72;96.92
2685;BME280;1352;48.446;9.156;2022-10-31T06:29:54;95668.44;;;12.71;96.73
2685;BME280;1352;48.446;9.156;2022-10-31T06:32:20;95663.72;;;12.74;97.38
2685;BME280;1352;48.446;9.156;2022-10-31T06:34:48;95662.75;;;12.75;97.60
2685;BME280;1352;48.446;9.156;2022-10-31T06:37:15;95659.03;;;12.78;97.83
2685;BME280;1352;48.446;9.156;2022-10-31T06:39:44;95663.19;;;12.80;97.96
2685;BME280;1352;48.446;9.156;2022-10-31T06:42:11;95665.81;;;12.80;98.23
2685;BME280;1352;48.446;9.156;2022-10-31T06:44:38;95669.78;;;12.84;97.39
2685;BME280;1352;48.446;9.156;2022-10-31T06:47:05;95666.88;;;12.87;97.38
2685;BME280;1352;48.446;9.156;2022-10-31T06:49:32;95673.06;;;12.96;96.95
2685;BME280;1352;48.446;9.156;2022-10-31T06:51:59;95668.06;;;13.02;96.04
2685;BME280;1352;48.446;9.156;2022-10-31T06:54:26;95661.88;;;13.03;95.92
2685;BME280;1352;48.446;9.156;2022-10-31T06:56:54;95657.75;;;13.01;95.89
2685;BME280;1352;48.446;9.156;2022-10-31T06:59:22;95656.09;;;13.10;95.95
2685;BME280;1352;48.446;9.156;2022-10-31T07:01:49;95661.00;;;13.13;95.84
2685;BME280;1352;48.446;9.156;2022-10-31T07:04:16;95656.22;;;13.18;96.43
2685;BME280;1352;48.446;9.156;2022-10-31T07:06:46;95656.09;;;13.19;96.49
2685;BME280;1352;48.446;9.156;2022-10-31T07:09:13;95656.31;;;13.26;96.32
2685;BME280;1352;48.446;9.156;2022-10-31T07:11:40;95656.88;;;13.29;96.71
2685;BME280;1352;48.446;9.156;2022-10-31T07:14:09;95663.31;;;13.35;95.89
2685;BME280;1352;48.446;9.156;2022-10-31T07:16:36;95658.22;;;13.33;96.92
2685;BME280;1352;48.446;9.156;2022-10-31T07:19:07;95659.22;;;13.23;99.47
2685;BME280;1352;48.446;9.156;2022-10-31T07:21:34;95668.19;;;13.30;99.35
2685;BME280;1352;48.446;9.156;2022-10-31T07:24:01;95662.31;;;13.46;97.38
2685;BME280;1352;48.446;9.156;2022-10-31T07:26:28;95661.03;;;13.50;97.55
2685;BME280;1352;48.446;9.156;2022-10-31T07:28:55;95657.84;;;13.56;97.83
2685;BME280;1352;48.446;9.156;2022-10-31T07:31:24;95655.19;;;13.65;97.49
2685;BME280;1352;48.446;9.156;2022-10-31T07:33:51;95652.38;;;13.76;98.21
2685;BME280;1352;48.446;9.156;2022-10-31T07:36:18;95654.75;;;13.88;98.57
2685;BME280;1352;48.446;9.156;2022-10-31T07:38:45;95656.69;;;13.95;98.45
2685;BME280;1352;48.446;9.156;2022-10-31T07:41:12;95659.13;;;13.97;99.08
2685;BME280;1352;48.446;9.156;2022-10-31T07:43:39;95659.81;;;13.99;100.00
2685;BME280;1352;48.446;9.156;2022-10-31T07:46:06;95668.44;;;13.64;100.00
2685;BME280;1352;48.446;9.156;2022-10-31T07:48:34;95664.75;;;13.29;100.00
2685;BME280;1352;48.446;9.156;2022-10-31T07:51:01;95661.00;;;13.22;100.00
2685;BME280;1352;48.446;9.156;2022-10-31T07:53:28;95654.53;;;13.26;100.00
2685;BME280;1352;48.446;9.156;2022-10-31T07:55:55;95661.84;;;13.23;100.00
2685;BME280;1352;48.446;9.156;2022-10-31T07:58:22;95663.13;;;13.19;100.00
2685;BME280;1352;48.446;9.156;2022-10-31T08:00:50;95660.75;;;13.25;100.00
2685;BME280;1352;48.446;9.156;2022-10-31T08:03:18;95663.47;;;13.33;100.00
2685;BME280;1352;48.446;9.156;2022-10-31T08:05:47;95668.28;;;13.38;100.00
2685;BME280;1352;48.446;9.156;2022-10-31T08:08:14;95659.75;;;13.36;100.00
2685;BME280;1352;48.446;9.156;2022-10-31T08:10:42;95655.19;;;13.38;100.00
2685;BME280;1352;48.446;9.156;2022-10-31T08:13:10;95658.78;;;13.37;100.00
2685;BME280;1352;48.446;9.156;2022-10-31T08:15:38;95666.50;;;13.38;100.00
2685;BME280;1352;48.446;9.156;2022-10-31T08:18:11;95660.84;;;13.33;99.09
2685;BME280;1352;48.446;9.156;2022-10-31T08:20:38;95651.63;;;13.29;100.00
2685;BME280;1352;48.446;9.156;2022-10-31T08:23:08;95664.53;;;13.40;100.00
2685;BME280;1352;48.446;9.156;2022-10-31T08:25:36;95661.72;;;13.52;100.00
2685;BME280;1352;48.446;9.156;2022-10-31T08:28:04;95663.09;;;13.56;100.00
2685;BME280;1352;48.446;9.156;2022-10-31T08:30:33;95653.84;;;13.79;100.00
2685;BME280;1352;48.446;9.156;2022-10-31T08:33:01;95663.47;;;13.88;100.00
2685;BME280;1352;48.446;9.156;2022-10-31T08:35:28;95659.66;;;14.00;100.00
2685;BME280;1352;48.446;9.156;2022-10-31T08:37:56;95655.66;;;14.06;100.00
2685;BME280;1352;48.446;9.156;2022-10-31T08:40:27;95652.13;;;14.15;100.00
2685;BME280;1352;48.446;9.156;2022-10-31T08:42:57;95654.69;;;14.25;100.00
2685;BME280;1352;48.446;9.156;2022-10-31T08:45:24;95651.06;;;14.26;100.00
2685;BME280;1352;48.446;9.156;2022-10-31T08:47:51;95650.09;;;14.27;100.00
2685;BME280;1352;48.446;9.156;2022-10-31T08:50:18;95648.66;;;14.32;100.00
2685;BME280;1352;48.446;9.156;2022-10-31T08:52:45;95648.53;;;14.34;100.00
2685;BME280;1352;48.446;9.156;2022-10-31T08:55:12;95651.31;;;14.50;100.00
2685;BME280;1352;48.446;9.156;2022-10-31T08:57:41;95647.16;;;14.65;100.00
2685;BME280;1352;48.446;9.156;2022-10-31T09:00:09;95651.44;;;14.66;100.00
2685;BME280;1352;48.446;9.156;2022-10-31T09:02:36;95656.00;;;14.64;100.00
2685;BME280;1352;48.446;9.156;2022-10-31T09:05:04;95656.16;;;14.63;100.00
2685;BME280;1352;48.446;9.156;2022-10-31T09:07:31;95657.44;;;14.76;100.00
2685;BME280;1352;48.446;9.156;2022-10-31T09:09:58;95646.72;;;14.96;100.00
2685;BME280;1352;48.446;9.156;2022-10-31T09:12:25;95643.81;;;14.99;100.00
2685;BME280;1352;48.446;9.156;2022-10-31T09:14:54;95638.44;;;15.08;100.00
2685;BME280;1352;48.446;9.156;2022-10-31T09:17:21;95637.69;;;15.24;99.85
2685;BME280;1352;48.446;9.156;2022-10-31T09:19:48;95643.00;;;15.32;99.72
2685;BME280;1352;48.446;9.156;2022-10-31T09:22:15;95637.44;;;15.35;99.03
2685;BME280;1352;48.446;9.156;2022-10-31T09:24:42;95642.69;;;15.35;97.58
2685;BME280;1352;48.446;9.156;2022-10-31T09:27:09;95637.88;;;15.31;96.39
2685;BME280;1352;48.446;9.156;2022-10-31T09:29:36;95640.84;;;15.27;93.38
2685;BME280;1352;48.446;9.156;2022-10-31T09:32:04;95631.81;;;15.30;96.35
2685;BME280;1352;48.446;9.156;2022-10-31T09:34:31;95627.22;;;15.32;93.76
2685;BME280;1352;48.446;9.156;2022-10-31T09:36:58;95628.69;;;15.60;93.83
2685;BME280;1352;48.446;9.156;2022-10-31T09:39:25;95627.44;;;15.73;93.92
2685;BME280;1352;48.446;9.156;2022-10-31T09:42:04;95618.44;;;15.91;94.04
2685;BME280;1352;48.446;9.156;2022-10-31T09:44:46;95615.00;;;16.07;89.80
2685;BME280;1352;48.446;9.156;2022-10-31T09:47:35;95621.25;;;16.14;88.52
2685;BME280;1352;48.446;9.156;2022-10-31T09:50:14;95619.81;;;16.28;86.00
2685;BME280;1352;48.446;9.156;2022-10-31T09:52:46;95621.09;;;16.16;89.40
2685;BME280;1352;48.446;9.156;2022-10-31T09:55:21;95619.16;;;16.26;88.13
2685;BME280;1352;48.446;9.156;2022-10-31T09:57:51;95618.31;;;16.33;86.84
2685;BME280;1352;48.446;9.156;2022-10-31T10:00:20;95618.66;;;16.55;86.42
2685;BME280;1352;48.446;9.156;2022-10-31T10:02:53;95628.72;;;16.59;92.44
2685;BME280;1352;48.446;9.156;2022-10-31T10:05:27;95624.94;;;16.62;87.43
2685;BME280;1352;48.446;9.156;2022-10-31T10:08:03;95624.47;;;16.74;83.32
2685;BME280;1352;48.446;9.156;2022-10-31T10:10:43;95628.91;;;16.82;82.44
2685;BME280;1352;48.446;9.156;2022-10-31T10:13:32;95620.66;;;16.93;83.14
2685;BME280;1352;48.446;9.156;2022-10-31T10:16:12;95624.44;;;16.91;77.83
2685;BME280;1352;48.446;9.156;2022-10-31T10:18:57;95623.25;;;17.09;80.01
2685;BME280;1352;48.446;9.156;2022-10-31T10:21:34;95618.41;;;17.29;81.39
2685;BME280;1352;48.446;9.156;2022-10-31T10:24:20;95610.47;;;17.45;77.69
2685;BME280;1352;48.446;9.156;2022-10-31T10:26:57;95615.25;;;17.42;74.84
2685;BME280;1352;48.446;9.156;2022-10-31T10:29:39;95610.47;;;17.37;75.58
2685;BME280;1352;48.446;9.156;2022-10-31T10:32:13;95603.34;;;17.54;79.84
2685;BME280;1352;48.446;9.156;2022-10-31T10:34:47;95605.69;;;17.41;76.79
2685;BME280;1352;48.446;9.156;2022-10-31T10:37:23;95602.22;;;17.40;77.54
2685;BME280;1352;48.446;9.156;2022-10-31T10:39:54;95595.63;;;17.44;78.52
2685;BME280;1352;48.446;9.156;2022-10-31T10:42:25;95603.16;;;17.56;78.08
2685;BME280;1352;48.446;9.156;2022-10-31T10:45:15;95596.97;;;17.79;77.95
2685;BME280;1352;48.446;9.156;2022-10-31T10:48:09;95594.06;;;17.97;79.23
2685;BME280;1352;48.446;9.156;2022-10-31T10:50:44;95594.28;;;18.18;76.06
2685;BME280;1352;48.446;9.156;2022-10-31T10:53:34;95586.31;;;18.41;76.85
2685;BME280;1352;48.446;9.156;2022-10-31T10:56:16;95577.88;;;18.69;76.71
2685;BME280;1352;48.446;9.156;2022-10-31T10:58:44;95579.91;;;18.81;72.97
2685;BME280;1352;48.446;9.156;2022-10-31T11:01:14;95566.72;;;18.96;71.91
2685;BME280;1352;48.446;9.156;2022-10-31T11:03:41;95557.88;;;19.04;70.45
2685;BME280;1352;48.446;9.156;2022-10-31T11:06:18;95561.91;;;19.14;69.93
2685;BME280;1352;48.446;9.156;2022-10-31T11:08:48;95559.53;;;19.34;74.61
2685;BME280;1352;48.446;9.156;2022-10-31T11:11:23;95558.16;;;19.53;73.65
2685;BME280;1352;48.446;9.156;2022-10-31T11:13:58;95558.13;;;19.67;74.66
2685;BME280;1352;48.446;9.156;2022-10-31T11:16:32;95560.00;;;19.88;72.79
2685;BME280;1352;48.446;9.156;2022-10-31T11:19:13;95549.75;;;20.00;71.98
2685;BME280;1352;48.446;9.156;2022-10-31T11:21:44;95551.25;;;20.09;71.09
2685;BME280;1352;48.446;9.156;2022-10-31T11:24:16;95539.81;;;20.30;71.27
2685;BME280;1352;48.446;9.156;2022-10-31T11:26:48;95538.78;;;20.46;69.97
2685;BME280;1352;48.446;9.156;2022-10-31T11:29:17;95538.06;;;20.58;71.30
2685;BME280;1352;48.446;9.156;2022-10-31T11:31:47;95524.56;;;20.53;71.63
2685;BME280;1352;48.446;9.156;2022-10-31T11:34:22;95524.25;;;20.63;68.89
2685;BME280;1352;48.446;9.156;2022-10-31T11:36:57;95525.72;;;20.72;69.14
2685;BME280;1352;48.446;9.156;2022-10-31T11:39:26;95522.16;;;20.86;70.04
2685;BME280;1352;48.446;9.156;2022-10-31T11:41:54;95522.16;;;20.86;69.91
2685;BME280;1352;48.446;9.156;2022-10-31T11:44:23;95513.44;;;20.92;69.46
2685;BME280;1352;48.446;9.156;2022-10-31T11:46:53;95512.50;;;20.78;67.05
2685;BME280;1352;48.446;9.156;2022-10-31T11:49:27;95517.97;;;20.70;67.14
2685;BME280;1352;48.446;9.156;2022-10-31T11:51:59;95514.75;;;20.75;68.70
2685;BME280;1352;48.446;9.156;2022-10-31T11:54:29;95513.38;;;20.86;68.74
2685;BME280;1352;48.446;9.156;2022-10-31T11:57:00;95512.31;;;20.31;69.07
2685;BME280;1352;48.446;9.156;2022-10-31T11:59:29;95515.38;;;20.28;70.00
2685;BME280;1352;48.446;9.156;2022-10-31T12:02:00;95507.72;;;19.76;70.04
2685;BME280;1352;48.446;9.156;2022-10-31T12:04:41;95502.63;;;19.45;67.98
2685;BME280;1352;48.446;9.156;2022-10-31T12:07:12;95509.25;;;19.19;71.53
2685;BME280;1352;48.446;9.156;2022-10-31T12:09:40;95505.72;;;19.12;75.08
2685;BME280;1352;48.446;9.156;2022-10-31T12:12:26;95503.59;;;19.08;74.62
2685;BME280;1352;48.446;9.156;2022-10-31T12:15:06;95505.25;;;19.09;77.54
2685;BME280;1352;48.446;9.156;2022-10-31T12:17:40;95495.56;;;19.16;76.92
2685;BME280;1352;48.446;9.156;2022-10-31T12:20:20;95489.66;;;18.99;75.22
2685;BME280;1352;48.446;9.156;2022-10-31T12:22:57;95489.81;;;18.98;77.75
2685;BME280;1352;48.446;9.156;2022-10-31T12:25:34;95490.75;;;18.75;77.35
2685;BME280;1352;48.446;9.156;2022-10-31T12:28:39;95486.38;;;18.68;82.62
2685;BME280;1352;48.446;9.156;2022-10-31T12:31:22;95480.22;;;18.52;81.07
2685;BME280;1352;48.446;9.156;2022-10-31T12:33:59;95472.69;;;18.64;80.79
2685;BME280;1352;48.446;9.156;2022-10-31T12:36:46;95471.44;;;18.75;80.46
2685;BME280;1352;48.446;9.156;2022-10-31T12:39:24;95462.84;;;18.73;79.20
2685;BME280;1352;48.446;9.156;2022-10-31T12:41:54;95457.38;;;18.74;78.68
2685;BME280;1352;48.446;9.156;2022-10-31T12:50:50;95451.38;;;18.80;79.84
2685;BME280;1352;48.446;9.156;2022-10-31T12:53:30;95451.47;;;18.72;78.30
2685;BME280;1352;48.446;9.156;2022-10-31T12:56:12;95440.41;;;18.69;79.50
2685;BME280;1352;48.446;9.156;2022-10-31T12:58:47;95442.53;;;18.73;77.18
2685;BME280;1352;48.446;9.156;2022-10-31T13:01:20;95438.81;;;18.68;77.96
2685;BME280;1352;48.446;9.156;2022-10-31T13:03:54;95436.78;;;18.70;79.10
2685;BME280;1352;48.446;9.156;2022-10-31T13:06:27;95440.34;;;18.62;80.86
2685;BME280;1352;48.446;9.156;2022-10-31T13:08:58;95432.97;;;18.57;78.09
2685;BME280;1352;48.446;9.156;2022-10-31T13:11:30;95423.84;;;18.60;79.69
2685;BME280;1352;48.446;9.156;2022-10-31T13:14:04;95434.88;;;18.64;79.02
2685;BME280;1352;48.446;9.156;2022-10-31T13:16:35;95432.41;;;18.62;82.27
2685;BME280;1352;48.446;9.156;2022-10-31T13:19:10;95425.94;;;18.79;80.82
2685;BME280;1352;48.446;9.156;2022-10-31T13:21:44;95426.03;;;18.71;79.47
2685;BME280;1352;48.446;9.156;2022-10-31T13:24:19;95426.28;;;18.91;82.94
2685;BME280;1352;48.446;9.156;2022-10-31T13:26:53;95422.19;;;19.03;81.66
2685;BME280;1352;48.446;9.156;2022-10-31T13:29:24;95418.47;;;19.19;82.00
2685;BME280;1352;48.446;9.156;2022-10-31T13:31:53;95408.69;;;19.34;80.74
2685;BME280;1352;48.446;9.156;2022-10-31T13:34:27;95400.56;;;19.36;78.50
2685;BME280;1352;48.446;9.156;2022-10-31T13:37:04;95395.84;;;19.31;77.26
2685;BME280;1352;48.446;9.156;2022-10-31T13:39:44;95396.66;;;19.31;79.13
2685;BME280;1352;48.446;9.156;2022-10-31T13:42:19;95389.78;;;19.52;79.99
2685;BME280;1352;48.446;9.156;2022-10-31T13:44:48;95386.72;;;19.76;78.89
2685;BME280;1352;48.446;9.156;2022-10-31T13:47:24;95384.38;;;19.88;77.81
2685;BME280;1352;48.446;9.156;2022-10-31T13:50:03;95386.84;;;19.89;79.60